createdAt,value
2022-07-25T00:00:42.963Z,99221.16
2022-07-25T00:03:10.955Z,99191.38
2022-07-25T00:05:38.182Z,99229.88
2022-07-25T00:08:05.517Z,99222.44
2022-07-25T00:10:32.546Z,99230.28
2022-07-25T00:12:59.558Z,99211.28
2022-07-25T00:15:26.501Z,99230.28
2022-07-25T00:17:53.550Z,99201.69
2022-07-25T00:20:20.579Z,99197.59
2022-07-25T00:22:47.540Z,99130.59
2022-07-25T00:25:14.532Z,99206.53
2022-07-25T00:27:41.493Z,99202.97
2022-07-25T00:30:09.209Z,99195.25
2022-07-25T00:32:36.203Z,99190.63
2022-07-25T00:35:03.391Z,99196.59
2022-07-25T00:37:30.600Z,99168.38
2022-07-25T00:39:57.610Z,99177.22
2022-07-25T00:42:24.637Z,99132.34
2022-07-25T00:44:52.366Z,99199.53
2022-07-25T00:47:19.429Z,99129.03
2022-07-25T00:49:46.628Z,99191.91
2022-07-25T00:52:14.317Z,99140.31
2022-07-25T00:54:41.400Z,99201.47
2022-07-25T00:57:08.363Z,99097.50
2022-07-25T00:59:35.304Z,99175.81
2022-07-25T01:02:03.789Z,99128.56
2022-07-25T01:04:31.386Z,99196.59
2022-07-25T01:06:58.701Z,99175.72
2022-07-25T01:09:26.603Z,99162.06
2022-07-25T01:11:53.593Z,99168.13
2022-07-25T01:14:22.110Z,99183.63
2022-07-25T01:16:49.091Z,99132.88
2022-07-25T01:19:17.598Z,99149.31
2022-07-25T01:21:44.601Z,99133.91
2022-07-25T01:24:12.558Z,99199.47
2022-07-25T01:26:40.087Z,99200.66
2022-07-25T01:29:07.178Z,99056.19
2022-07-25T01:31:34.607Z,99203.44
2022-07-25T01:34:01.697Z,99201.78
2022-07-25T01:36:28.608Z,99210.59
2022-07-25T01:38:55.604Z,99207.09
2022-07-25T01:41:22.939Z,99204.63
2022-07-25T01:43:50.146Z,99196.88
2022-07-25T01:46:17.321Z,99174.63
2022-07-25T01:48:44.499Z,99215.47
2022-07-25T01:51:11.640Z,99217.88
2022-07-25T01:53:38.719Z,99216.22
2022-07-25T01:56:06.878Z,99189.53
2022-07-25T01:58:36.032Z,99218.69
2022-07-25T02:01:03.076Z,99213.50
2022-07-25T02:03:30.081Z,99199.97
2022-07-25T02:06:02.832Z,99160.44
2022-07-25T02:08:30.471Z,99221.50
2022-07-25T02:10:58.484Z,99135.44
2022-07-25T02:13:25.901Z,99130.22
2022-07-25T02:15:52.846Z,99225.78
2022-07-25T02:18:19.919Z,99191.25
2022-07-25T02:20:46.902Z,99212.06
2022-07-25T02:23:13.911Z,99178.22
2022-07-25T02:25:41.088Z,99216.13
2022-07-25T02:28:08.044Z,99179.06
2022-07-25T02:30:38.328Z,99195.53
2022-07-25T02:33:05.697Z,99193.84
2022-07-25T02:35:32.877Z,99213.50
2022-07-25T02:37:59.887Z,99216.06
2022-07-25T02:40:27.083Z,99203.81
2022-07-25T02:42:54.060Z,99140.88
2022-07-25T02:45:21.239Z,99213.19
2022-07-25T02:47:48.270Z,99113.22
2022-07-25T02:50:15.306Z,99207.06
2022-07-25T02:52:43.327Z,99213.19
2022-07-25T02:55:11.621Z,99194.88
2022-07-25T02:57:38.757Z,99209.28
2022-07-25T03:00:07.036Z,99130.88
2022-07-25T03:02:34.439Z,99187.44
2022-07-25T03:05:01.500Z,99110.72
2022-07-25T03:07:30.390Z,99125.06
2022-07-25T03:09:57.382Z,99192.78
2022-07-25T03:12:24.366Z,99204.88
2022-07-25T03:14:51.424Z,99193.16
2022-07-25T03:17:18.470Z,99201.50
2022-07-25T03:19:45.555Z,99201.50
2022-07-25T03:22:12.559Z,99147.94
2022-07-25T03:24:39.681Z,99201.88
2022-07-25T03:27:06.688Z,99196.47
2022-07-25T03:29:33.962Z,99216.31
2022-07-25T03:32:01.044Z,99162.63
2022-07-25T03:34:28.309Z,99202.84
2022-07-25T03:36:55.376Z,99129.53
2022-07-25T03:39:22.392Z,99196.53
2022-07-25T03:41:49.344Z,99212.72
2022-07-25T03:44:16.565Z,99194.25
2022-07-25T03:46:43.505Z,99194.25
2022-07-25T03:49:10.541Z,99061.63
2022-07-25T03:51:37.933Z,99205.84
2022-07-25T03:54:06.450Z,99168.63
2022-07-25T03:56:37.109Z,99195.19
2022-07-25T03:59:11.456Z,99200.28
2022-07-25T04:01:39.213Z,99196.47
2022-07-25T04:04:07.260Z,99193.63
2022-07-25T04:06:34.557Z,99197.72
2022-07-25T04:09:02.249Z,99174.25
2022-07-25T04:11:30.960Z,99096.56
2022-07-25T04:13:58.874Z,99188.59
2022-07-25T04:16:27.815Z,99178.59
2022-07-25T04:18:56.220Z,99175.03
2022-07-25T04:21:24.568Z,99183.56
2022-07-25T04:23:51.598Z,99131.44
2022-07-25T04:26:19.441Z,99188.34
2022-07-25T04:28:46.593Z,99132.19
2022-07-25T04:31:14.018Z,99182.47
2022-07-25T04:33:41.313Z,99178.88
2022-07-25T04:36:09.078Z,99172.72
2022-07-25T04:38:36.292Z,99190.91
2022-07-25T04:41:04.370Z,99106.38
2022-07-25T04:43:31.599Z,99170.31
2022-07-25T04:45:58.797Z,99065.25
2022-07-25T04:48:25.896Z,99171.59
2022-07-25T04:50:53.054Z,99171.34
2022-07-25T04:53:20.026Z,99196.06
2022-07-25T04:55:47.068Z,99184.88
2022-07-25T04:58:14.058Z,99161.63
2022-07-25T05:00:41.224Z,99187.16
2022-07-25T05:03:08.249Z,99206.72
2022-07-25T05:05:35.227Z,99197.84
2022-07-25T05:08:02.334Z,99201.13
2022-07-25T05:10:30.076Z,99149.78
2022-07-25T05:12:57.150Z,99205.13
2022-07-25T05:15:24.385Z,99094.91
2022-07-25T05:17:51.608Z,99186.25
2022-07-25T05:20:19.020Z,99168.00
2022-07-25T05:22:46.019Z,99176.41
2022-07-25T05:25:13.075Z,99183.44
2022-07-25T05:27:41.148Z,99182.44
2022-07-25T05:30:10.145Z,99186.84
2022-07-25T05:32:37.825Z,99193.91
2022-07-25T05:35:08.087Z,99209.97
2022-07-25T05:37:36.479Z,99192.81
2022-07-25T05:40:05.094Z,99172.91
2022-07-25T05:42:32.027Z,99142.88
2022-07-25T05:44:59.051Z,99104.97
2022-07-25T05:47:26.015Z,99190.91
2022-07-25T05:49:52.968Z,99183.22
2022-07-25T05:52:19.968Z,99183.81
2022-07-25T05:54:46.963Z,99149.34
2022-07-25T05:57:13.983Z,99134.97
2022-07-25T05:59:41.059Z,99134.53
2022-07-25T06:02:08.403Z,99083.72
2022-07-25T06:04:35.526Z,99160.78
2022-07-25T06:07:02.738Z,99178.66
2022-07-25T06:09:32.006Z,99156.97
2022-07-25T06:12:01.085Z,99162.19
2022-07-25T06:14:29.749Z,99108.00
2022-07-25T06:16:57.294Z,99185.44
2022-07-25T06:19:24.458Z,99163.66
2022-07-25T06:21:51.531Z,99146.00
2022-07-25T06:24:18.702Z,99163.69
2022-07-25T06:26:45.683Z,99172.25
2022-07-25T06:29:12.787Z,99145.75
2022-07-25T06:31:40.087Z,99043.34
2022-07-25T06:34:07.599Z,99166.09
2022-07-25T06:36:35.010Z,99157.34
2022-07-25T06:39:02.541Z,99131.19
2022-07-25T06:41:29.712Z,99163.25
2022-07-25T06:43:56.719Z,99167.56
2022-07-25T06:46:23.845Z,99100.59
2022-07-25T06:48:50.982Z,99181.63
2022-07-25T06:51:17.998Z,99143.88
2022-07-25T06:53:44.937Z,99169.94
2022-07-25T06:56:17.197Z,99158.63
2022-07-25T06:58:45.075Z,99168.59
2022-07-25T07:01:12.513Z,99174.03
2022-07-25T07:03:40.440Z,99175.72
2022-07-25T07:06:10.827Z,99137.22
2022-07-25T07:08:38.253Z,99139.78
2022-07-25T07:11:06.230Z,99151.09
2022-07-25T07:13:34.215Z,99107.03
2022-07-25T07:16:01.301Z,99132.66
2022-07-25T07:18:28.489Z,99167.66
2022-07-25T07:20:55.496Z,99149.97
2022-07-25T07:23:22.475Z,99130.13
2022-07-25T07:25:51.727Z,99170.13
2022-07-25T07:28:19.206Z,99147.88
2022-07-25T07:33:33.673Z,99093.84
2022-07-25T07:36:02.355Z,99174.97
2022-07-25T07:38:29.376Z,99176.69
2022-07-25T07:40:56.353Z,99123.59
2022-07-25T07:43:29.190Z,99170.66
2022-07-25T07:45:57.010Z,99156.88
2022-07-25T07:48:24.064Z,99186.75
2022-07-25T07:50:51.289Z,99138.75
2022-07-25T07:53:18.275Z,99181.41
2022-07-25T07:55:45.538Z,99156.88
2022-07-25T07:58:17.395Z,99106.81
2022-07-25T08:00:46.165Z,99133.69
2022-07-25T08:03:13.802Z,99152.97
2022-07-25T08:05:43.688Z,99190.19
2022-07-25T08:08:13.006Z,99116.56
2022-07-25T08:10:42.160Z,99155.94
2022-07-25T08:13:21.055Z,99165.91
2022-07-25T08:15:54.663Z,99106.06
2022-07-25T08:18:21.960Z,99132.16
2022-07-25T08:20:50.158Z,99167.94
2022-07-25T08:23:17.819Z,99158.31
2022-07-25T08:25:45.774Z,99100.41
2022-07-25T08:28:13.749Z,99180.09
2022-07-25T08:30:42.335Z,99169.88
2022-07-25T08:33:13.421Z,99095.06
2022-07-25T08:35:45.547Z,99165.00
2022-07-25T08:38:12.512Z,99086.56
2022-07-25T08:40:39.704Z,99120.25
2022-07-25T08:43:09.090Z,99141.84
2022-07-25T08:45:37.082Z,99150.38
2022-07-25T08:48:04.376Z,99109.78
2022-07-25T08:50:31.420Z,99166.81
2022-07-25T08:53:31.010Z,99163.63
2022-07-25T08:55:46.828Z,99176.81
2022-07-25T08:58:15.567Z,99117.59
2022-07-25T09:00:42.864Z,99159.25
2022-07-25T09:03:10.420Z,99110.94
2022-07-25T09:05:38.634Z,99179.13
2022-07-25T09:08:19.884Z,99108.88
2022-07-25T09:10:49.872Z,99108.53
2022-07-25T09:13:17.743Z,99175.53
2022-07-25T09:15:53.921Z,99174.78
2022-07-25T09:18:26.802Z,99171.16
2022-07-25T09:20:59.183Z,99166.41
2022-07-25T09:23:38.362Z,99150.72
2022-07-25T09:26:08.343Z,99165.84
2022-07-25T09:28:43.696Z,99154.25
2022-07-25T09:31:11.589Z,99090.25
2022-07-25T09:33:48.027Z,99161.94
2022-07-25T09:36:15.215Z,99172.78
2022-07-25T09:38:53.030Z,99092.06
2022-07-25T09:41:20.165Z,99083.06
2022-07-25T09:43:47.766Z,99163.47
2022-07-25T09:46:14.908Z,99162.59
2022-07-25T09:48:45.323Z,99109.94
2022-07-25T09:51:12.592Z,99172.06
2022-07-25T09:53:40.890Z,99155.09
2022-07-25T09:56:08.802Z,99098.09
2022-07-25T09:58:35.804Z,99145.88
2022-07-25T10:01:07.529Z,99140.81
2022-07-25T10:04:15.190Z,99153.44
2022-07-25T10:07:06.422Z,99116.88
2022-07-25T10:09:33.807Z,99151.53
2022-07-25T10:12:06.180Z,99159.56
2022-07-25T10:14:34.102Z,99125.03
2022-07-25T10:17:02.089Z,99164.91
2022-07-25T10:19:54.286Z,99128.63
2022-07-25T10:22:56.261Z,99137.66
2022-07-25T10:25:24.216Z,99141.03
2022-07-25T10:28:00.122Z,99158.25
2022-07-25T10:30:34.212Z,99070.28
2022-07-25T10:33:21.614Z,99143.19
2022-07-25T10:35:48.665Z,99004.13
2022-07-25T10:38:25.314Z,99132.91
2022-07-25T10:40:52.825Z,99149.81
2022-07-25T10:43:25.642Z,99129.50
2022-07-25T10:45:54.291Z,99135.84
2022-07-25T10:48:23.691Z,99106.47
2022-07-25T10:50:59.916Z,99156.78
2022-07-25T10:53:48.504Z,99106.31
2022-07-25T10:56:20.765Z,99136.94
2022-07-25T10:59:01.716Z,99147.63
2022-07-25T11:01:33.654Z,99152.59
2022-07-25T11:04:06.818Z,99104.53
2022-07-25T11:06:35.322Z,99077.41
2022-07-25T11:09:18.066Z,99098.53
2022-07-25T11:11:48.826Z,99119.97
2022-07-25T11:14:31.333Z,99142.88
2022-07-25T11:17:09.439Z,99137.25
2022-07-25T11:19:36.538Z,99110.56
2022-07-25T11:22:06.449Z,99142.19
2022-07-25T11:24:36.998Z,99138.47
2022-07-25T11:27:09.730Z,99145.09
2022-07-25T11:29:39.365Z,99130.16
2022-07-25T11:32:10.878Z,99123.19
2022-07-25T11:34:54.023Z,99078.03
2022-07-25T11:37:21.849Z,99132.06
2022-07-25T11:39:49.520Z,99123.19
2022-07-25T11:42:18.945Z,99047.13
2022-07-25T11:44:51.644Z,99058.22
2022-07-25T11:47:30.964Z,99121.78
2022-07-25T11:50:04.223Z,99054.38
2022-07-25T11:52:32.782Z,99120.84
2022-07-25T11:55:02.517Z,99038.81
2022-07-25T11:57:33.668Z,99128.31
2022-07-25T12:00:02.859Z,99122.34
2022-07-25T12:02:37.171Z,99114.53
2022-07-25T12:05:09.338Z,99118.81
2022-07-25T12:07:48.770Z,99108.25
2022-07-25T12:10:18.582Z,99096.94
2022-07-25T12:12:51.338Z,99040.50
2022-07-25T12:15:24.513Z,99109.97
2022-07-25T12:17:52.795Z,99101.41
2022-07-25T12:20:26.029Z,99091.88
2022-07-25T12:22:58.190Z,99038.56
2022-07-25T12:25:30.474Z,99106.25
2022-07-25T12:28:00.254Z,99089.31
2022-07-25T12:30:28.771Z,99077.22
2022-07-25T12:32:56.670Z,99026.44
2022-07-25T12:35:24.075Z,99092.97
2022-07-25T12:37:51.949Z,99024.91
2022-07-25T12:40:19.843Z,99083.66
2022-07-25T12:42:47.535Z,99037.50
2022-07-25T12:45:15.793Z,99045.44
2022-07-25T12:47:44.222Z,99051.09
2022-07-25T12:50:11.589Z,99080.31
2022-07-25T12:52:38.686Z,99056.59
2022-07-25T12:55:10.704Z,99082.03
2022-07-25T12:57:38.705Z,98991.78
2022-07-25T13:00:08.377Z,99084.91
2022-07-25T13:02:35.700Z,99063.47
2022-07-25T13:05:02.950Z,98971.06
2022-07-25T13:07:30.803Z,99071.66
2022-07-25T13:09:57.819Z,99083.00
2022-07-25T13:12:25.267Z,99090.59
2022-07-25T13:14:52.363Z,99077.66
2022-07-25T13:17:22.479Z,99098.19
2022-07-25T13:19:54.420Z,99077.44
2022-07-25T13:22:21.488Z,99083.22
2022-07-25T13:24:48.574Z,99055.16
2022-07-25T13:27:18.961Z,99079.81
2022-07-25T13:29:47.217Z,99055.75
2022-07-25T13:32:14.418Z,99030.50
2022-07-25T13:34:41.554Z,99099.31
2022-07-25T13:37:08.574Z,99060.97
2022-07-25T13:39:35.945Z,99071.97
2022-07-25T13:42:03.474Z,99063.94
2022-07-25T13:44:30.518Z,99087.13
2022-07-25T13:46:58.783Z,99087.13
2022-07-25T13:49:26.151Z,99087.31
2022-07-25T13:51:53.449Z,99091.91
2022-07-25T13:54:21.249Z,99019.13
2022-07-25T13:56:48.333Z,99074.13
2022-07-25T13:59:21.005Z,99021.06
2022-07-25T14:01:48.974Z,99063.75
2022-07-25T14:04:16.204Z,99081.16
2022-07-25T14:06:43.584Z,99062.56
2022-07-25T14:09:11.085Z,99071.00
2022-07-25T14:11:38.320Z,99085.66
2022-07-25T14:14:05.276Z,99015.69
2022-07-25T14:16:33.853Z,99070.47
2022-07-25T14:19:02.280Z,99072.94
2022-07-25T14:21:30.221Z,99042.91
2022-07-25T14:23:57.342Z,99041.53
2022-07-25T14:26:24.570Z,99086.78
2022-07-25T14:28:51.640Z,99087.97
2022-07-25T14:31:18.736Z,99102.16
2022-07-25T14:33:45.862Z,99023.31
2022-07-25T14:36:12.976Z,99087.97
2022-07-25T14:38:39.957Z,99074.81
2022-07-25T14:41:12.340Z,99006.56
2022-07-25T14:43:41.192Z,99089.97
2022-07-25T14:46:09.174Z,99078.78
2022-07-25T14:48:38.791Z,99066.03
2022-07-25T14:51:07.030Z,99071.94
2022-07-25T14:53:35.305Z,99032.91
2022-07-25T14:56:04.874Z,99012.97
2022-07-25T14:58:33.648Z,99097.56
2022-07-25T15:01:01.276Z,99084.75
2022-07-25T15:03:28.345Z,99082.19
2022-07-25T15:05:55.428Z,99087.88
2022-07-25T15:08:23.081Z,99103.22
2022-07-25T15:10:50.220Z,99089.50
2022-07-25T15:13:33.187Z,99107.72
2022-07-25T15:16:01.397Z,99115.69
2022-07-25T15:18:29.138Z,99118.44
2022-07-25T15:20:56.200Z,98869.84
2022-07-25T15:23:25.212Z,99112.00
2022-07-25T15:26:02.925Z,99117.97
2022-07-25T15:28:35.641Z,99082.63
2022-07-25T15:31:03.529Z,99108.47
2022-07-25T15:33:31.495Z,99105.59
2022-07-25T15:35:58.809Z,99132.84
2022-07-25T15:38:26.025Z,99057.94
2022-07-25T15:40:53.122Z,99143.09
2022-07-25T15:43:20.214Z,99135.63
2022-07-25T15:45:47.263Z,99134.69
2022-07-25T15:48:16.353Z,99140.69
2022-07-25T15:50:46.096Z,99164.94
2022-07-25T15:53:13.982Z,99169.06
2022-07-25T15:55:42.396Z,99163.94
2022-07-25T15:58:10.439Z,99107.94
2022-07-25T16:00:38.709Z,99191.75
2022-07-25T16:03:06.241Z,99199.47
2022-07-25T16:05:34.168Z,99206.53
2022-07-25T16:08:02.261Z,99209.41
2022-07-25T16:10:31.740Z,99243.31
2022-07-25T16:12:59.437Z,99248.41
2022-07-25T16:15:26.905Z,99202.00
2022-07-25T16:18:01.781Z,99184.34
2022-07-25T16:20:31.671Z,99140.19
2022-07-25T16:22:59.478Z,99183.47
2022-07-25T16:25:28.701Z,99207.72
2022-07-25T16:27:56.834Z,99217.94
2022-07-25T16:30:24.069Z,99195.06
2022-07-25T16:32:51.202Z,99184.09
2022-07-25T16:35:18.229Z,99133.44
2022-07-25T16:37:45.331Z,99224.28
2022-07-25T16:40:12.652Z,99209.53
2022-07-25T16:42:40.074Z,99242.63
2022-07-25T16:45:07.642Z,99175.84
2022-07-25T16:47:34.840Z,99256.97
2022-07-25T16:50:02.384Z,99247.56
2022-07-25T16:52:30.219Z,99242.28
2022-07-25T16:54:57.221Z,99167.56
2022-07-25T16:57:25.151Z,99239.19
2022-07-25T16:59:55.535Z,99144.59
2022-07-25T17:02:27.508Z,99196.53
2022-07-25T17:04:56.975Z,99193.28
2022-07-25T17:07:24.708Z,99220.09
2022-07-25T17:09:52.198Z,99133.69
2022-07-25T17:12:19.584Z,99162.25
2022-07-25T17:14:46.673Z,99240.84
2022-07-25T17:17:13.958Z,99191.69
2022-07-25T17:19:41.080Z,99197.69
2022-07-25T17:22:09.566Z,98930.72
2022-07-25T17:24:37.009Z,99234.09
2022-07-25T17:27:04.490Z,99196.22
2022-07-25T17:29:31.783Z,99233.88
2022-07-25T17:31:58.897Z,99233.19
2022-07-25T17:34:26.990Z,99192.22
2022-07-25T17:36:55.148Z,99248.09
2022-07-25T17:39:22.194Z,99219.50
2022-07-25T17:41:49.329Z,99152.97
2022-07-25T17:44:16.749Z,99154.72
2022-07-25T17:46:45.084Z,99205.56
2022-07-25T17:49:12.199Z,99227.75
2022-07-25T17:51:39.331Z,99205.75
2022-07-25T17:54:06.686Z,99155.81
2022-07-25T17:56:34.103Z,99210.91
2022-07-25T17:59:02.058Z,99212.69
2022-07-25T18:01:29.507Z,99241.13
2022-07-25T18:03:57.187Z,99230.06
2022-07-25T18:06:29.550Z,99226.44
2022-07-25T18:08:57.787Z,99224.84
2022-07-25T18:11:25.156Z,99106.06
2022-07-25T18:13:52.232Z,99229.94
2022-07-25T18:16:19.369Z,99223.88
2022-07-25T18:18:46.553Z,99217.25
2022-07-25T18:21:13.508Z,99220.53
2022-07-25T18:23:40.533Z,99226.75
2022-07-25T18:26:09.272Z,99163.91
2022-07-25T18:28:36.432Z,99199.16
2022-07-25T18:31:04.643Z,99226.41
2022-07-25T18:33:31.809Z,99135.91
2022-07-25T18:36:01.778Z,99145.34
2022-07-25T18:38:31.646Z,99214.22
2022-07-25T18:41:19.282Z,99199.69
2022-07-25T18:43:45.757Z,99157.44
2022-07-25T18:46:15.240Z,99217.63
2022-07-25T18:48:44.525Z,99156.53
2022-07-25T18:51:12.056Z,99227.06
2022-07-25T18:53:39.089Z,99205.56
2022-07-25T18:56:06.363Z,99212.25
2022-07-25T18:58:33.631Z,99209.00
2022-07-25T19:01:03.059Z,99154.88
2022-07-25T19:03:32.804Z,99159.91
2022-07-25T19:06:03.396Z,99227.19
2022-07-25T19:08:31.135Z,99238.56
2022-07-25T19:10:58.168Z,99220.53
2022-07-25T19:13:47.556Z,99236.22
2022-07-25T19:16:12.373Z,99239.59
2022-07-25T19:18:39.883Z,99223.47
2022-07-25T19:23:38.079Z,99249.44
2022-07-25T19:26:05.552Z,99252.84
2022-07-25T19:28:32.528Z,99266.13
2022-07-25T19:30:59.570Z,99242.59
2022-07-25T19:33:34.744Z,99173.78
2022-07-25T19:36:04.324Z,99259.28
2022-07-25T19:38:31.630Z,99259.13
2022-07-25T19:40:59.182Z,99188.59
2022-07-25T19:43:26.417Z,99253.38
2022-07-25T19:45:53.682Z,99248.09
2022-07-25T19:48:24.010Z,99113.81
2022-07-25T19:50:52.566Z,99262.94
2022-07-25T19:53:19.632Z,99259.59
2022-07-25T19:55:46.674Z,99258.94
2022-07-25T19:58:13.602Z,99272.94
2022-07-25T20:00:40.665Z,99247.00
2022-07-25T20:03:07.872Z,99272.16
2022-07-25T20:05:34.979Z,99272.16
2022-07-25T20:08:02.024Z,99271.22
2022-07-25T20:10:29.177Z,99244.53
2022-07-25T20:13:00.964Z,99238.56
2022-07-25T20:15:28.824Z,99279.09
2022-07-25T20:17:56.933Z,99283.44
2022-07-25T20:20:24.990Z,99280.94
2022-07-25T20:22:52.891Z,99294.13
2022-07-25T20:25:19.847Z,99182.06
2022-07-25T20:27:49.738Z,99263.00
2022-07-25T20:30:17.437Z,99294.25
2022-07-25T20:32:44.445Z,99196.75
2022-07-25T20:35:11.465Z,99206.22
2022-07-25T20:37:38.493Z,99258.09
2022-07-25T20:40:06.879Z,99256.31
2022-07-25T20:42:36.813Z,99251.16
2022-07-25T20:45:05.852Z,99279.47
2022-07-25T20:47:32.900Z,99260.72
2022-07-25T20:50:00.534Z,99197.25
2022-07-25T20:52:31.310Z,99210.13
2022-07-25T20:54:58.261Z,99296.25
2022-07-25T20:57:25.262Z,99279.28
2022-07-25T20:59:52.333Z,99270.53
2022-07-25T21:02:19.382Z,99276.22
2022-07-25T21:04:48.653Z,99128.81
2022-07-25T21:07:16.938Z,99218.41
2022-07-25T21:09:44.480Z,99282.19
2022-07-25T21:12:11.558Z,99271.06
2022-07-25T21:14:38.668Z,99293.75
2022-07-25T21:17:05.953Z,99256.00
2022-07-25T21:19:33.149Z,99201.00
2022-07-25T21:22:00.090Z,99280.91
2022-07-25T21:24:27.069Z,99262.91
2022-07-25T21:26:54.023Z,99301.31
2022-07-25T21:29:21.138Z,99089.38
2022-07-25T21:31:48.416Z,99290.00
2022-07-25T21:34:15.538Z,99286.69
2022-07-25T21:36:42.600Z,99304.63
2022-07-25T21:39:10.099Z,99294.91
2022-07-25T21:41:37.302Z,99283.09
2022-07-25T21:44:04.445Z,99307.25
2022-07-25T21:46:31.771Z,99298.72
2022-07-25T21:49:17.663Z,99303.09
2022-07-25T21:52:04.819Z,99250.00
2022-07-25T21:54:32.124Z,99298.09
2022-07-25T21:56:59.125Z,99293.81
2022-07-25T21:59:26.146Z,99304.13
2022-07-25T22:01:53.114Z,99305.06
2022-07-25T22:04:21.572Z,99261.13
2022-07-25T22:06:48.695Z,99232.81
2022-07-25T22:09:15.767Z,99295.47
2022-07-25T22:11:46.491Z,99292.09
2022-07-25T22:14:14.569Z,99230.81
2022-07-25T22:16:42.597Z,99271.34
2022-07-25T22:19:10.003Z,99295.59
2022-07-25T22:21:37.199Z,99304.88
2022-07-25T22:24:04.384Z,99311.28
2022-07-25T22:26:31.369Z,99313.78
2022-07-25T22:28:58.498Z,99304.63
2022-07-25T22:31:25.582Z,99308.34
2022-07-25T22:33:52.687Z,99159.13
2022-07-25T22:36:19.780Z,99305.59
2022-07-25T22:38:46.756Z,99311.91
2022-07-25T22:41:13.832Z,99106.13
2022-07-25T22:43:53.153Z,99262.84
2022-07-25T22:46:28.579Z,99221.47
2022-07-25T22:48:56.151Z,99298.22
2022-07-25T22:51:23.602Z,99183.69
2022-07-25T22:53:50.913Z,99295.00
2022-07-25T22:56:18.036Z,99302.84
2022-07-25T22:58:45.741Z,99299.41
2022-07-25T23:01:17.814Z,99303.91
2022-07-25T23:03:45.602Z,99305.69
2022-07-25T23:06:13.442Z,99284.81
2022-07-25T23:08:40.936Z,99300.34
2022-07-25T23:11:08.594Z,99270.38
2022-07-25T23:13:36.349Z,99319.72
2022-07-25T23:16:04.154Z,99310.03
2022-07-25T23:18:32.189Z,99246.34
2022-07-25T23:20:59.424Z,99307.59
2022-07-25T23:23:26.437Z,99262.69
2022-07-25T23:25:53.454Z,99286.00
2022-07-25T23:28:21.024Z,99295.59
2022-07-25T23:30:48.107Z,99225.78
2022-07-25T23:33:15.083Z,99311.16
2022-07-25T23:35:42.413Z,99291.38
2022-07-25T23:38:10.913Z,99285.25
2022-07-25T23:40:37.948Z,99264.66
2022-07-25T23:43:05.127Z,99244.00
2022-07-25T23:45:32.849Z,99310.50
2022-07-25T23:47:59.878Z,99231.78
2022-07-25T23:50:26.940Z,99302.47
2022-07-25T23:52:53.893Z,99260.25
2022-07-25T23:55:20.887Z,99295.53
2022-07-25T23:57:47.934Z,99298.25
